sensor_id;sensor_type;location;lat;lon;timestamp;temperature;humidity
38325;DHT22;24126;52.672;13.622;2022-10-14T00:01:02;15.00;71.00
38325;DHT22;24126;52.672;13.622;2022-10-14T00:03:32;15.00;71.00
38325;DHT22;24126;52.672;13.622;2022-10-14T00:06:02;15.00;70.90
38325;DHT22;24126;52.672;13.622;2022-10-14T00:08:29;15.00;70.90
38325;DHT22;24126;52.672;13.622;2022-10-14T00:11:02;14.90;70.60
38325;DHT22;24126;52.672;13.622;2022-10-14T00:13:29;14.90;70.90
38325;DHT22;24126;52.672;13.622;2022-10-14T00:15:56;14.90;71.10
38325;DHT22;24126;52.672;13.622;2022-10-14T00:18:23;14.90;71.00
38325;DHT22;24126;52.672;13.622;2022-10-14T00:20:54;14.80;71.00
38325;DHT22;24126;52.672;13.622;2022-10-14T00:23:21;14.80;70.90
38325;DHT22;24126;52.672;13.622;2022-10-14T00:25:48;14.80;70.80
38325;DHT22;24126;52.672;13.622;2022-10-14T00:28:16;14.80;70.90
38325;DHT22;24126;52.672;13.622;2022-10-14T00:30:56;14.80;70.70
38325;DHT22;24126;52.672;13.622;2022-10-14T00:33:24;14.70;70.80
38325;DHT22;24126;52.672;13.622;2022-10-14T00:35:55;14.70;70.60
38325;DHT22;24126;52.672;13.622;2022-10-14T00:38:28;14.70;70.70
38325;DHT22;24126;52.672;13.622;2022-10-14T00:40:55;14.60;70.60
38325;DHT22;24126;52.672;13.622;2022-10-14T00:43:23;14.60;70.50
38325;DHT22;24126;52.672;13.622;2022-10-14T00:45:50;14.60;70.40
38325;DHT22;24126;52.672;13.622;2022-10-14T00:48:18;14.60;70.50
38325;DHT22;24126;52.672;13.622;2022-10-14T00:50:51;14.50;70.60
38325;DHT22;24126;52.672;13.622;2022-10-14T00:53:19;14.50;70.60
38325;DHT22;24126;52.672;13.622;2022-10-14T00:55:46;14.50;70.50
38325;DHT22;24126;52.672;13.622;2022-10-14T00:58:13;14.40;70.50
38325;DHT22;24126;52.672;13.622;2022-10-14T01:00:41;14.40;70.50
38325;DHT22;24126;52.672;13.622;2022-10-14T01:03:09;14.40;70.60
38325;DHT22;24126;52.672;13.622;2022-10-14T01:05:39;14.30;70.80
38325;DHT22;24126;52.672;13.622;2022-10-14T01:08:14;14.30;70.70
38325;DHT22;24126;52.672;13.622;2022-10-14T01:10:46;14.30;70.70
38325;DHT22;24126;52.672;13.622;2022-10-14T01:13:19;14.20;70.70
38325;DHT22;24126;52.672;13.622;2022-10-14T01:21:25;14.20;70.60
38325;DHT22;24126;52.672;13.622;2022-10-14T01:24:00;14.20;70.90
38325;DHT22;24126;52.672;13.622;2022-10-14T01:31:31;14.10;70.50
38325;DHT22;24126;52.672;13.622;2022-10-14T01:34:00;14.10;70.50
38325;DHT22;24126;52.672;13.622;2022-10-14T01:36:29;14.10;70.40
38325;DHT22;24126;52.672;13.622;2022-10-14T01:39:19;14.10;70.40
38325;DHT22;24126;52.672;13.622;2022-10-14T01:42:21;14.10;70.50
38325;DHT22;24126;52.672;13.622;2022-10-14T01:44:41;14.10;70.50
38325;DHT22;24126;52.672;13.622;2022-10-14T01:47:11;14.20;70.70
38325;DHT22;24126;52.672;13.622;2022-10-14T01:49:48;14.10;70.60
38325;DHT22;24126;52.672;13.622;2022-10-14T01:52:23;14.20;70.60
38325;DHT22;24126;52.672;13.622;2022-10-14T01:54:53;14.20;70.60
38325;DHT22;24126;52.672;13.622;2022-10-14T01:57:23;14.20;70.70
38325;DHT22;24126;52.672;13.622;2022-10-14T01:59:52;14.20;70.80
38325;DHT22;24126;52.672;13.622;2022-10-14T02:02:21;14.20;70.70
38325;DHT22;24126;52.672;13.622;2022-10-14T02:04:48;14.20;70.60
38325;DHT22;24126;52.672;13.622;2022-10-14T02:07:18;14.10;70.70
38325;DHT22;24126;52.672;13.622;2022-10-14T02:17:59;14.10;70.90
38325;DHT22;24126;52.672;13.622;2022-10-14T02:20:34;14.00;70.60
38325;DHT22;24126;52.672;13.622;2022-10-14T02:23:27;14.00;70.60
38325;DHT22;24126;52.672;13.622;2022-10-14T02:25:54;14.00;70.70
38325;DHT22;24126;52.672;13.622;2022-10-14T02:28:23;13.90;70.60
38325;DHT22;24126;52.672;13.622;2022-10-14T02:30:52;13.90;70.50
38325;DHT22;24126;52.672;13.622;2022-10-14T02:33:21;13.80;70.50
38325;DHT22;24126;52.672;13.622;2022-10-14T02:35:50;13.80;70.50
38325;DHT22;24126;52.672;13.622;2022-10-14T02:38:18;13.80;70.70
38325;DHT22;24126;52.672;13.622;2022-10-14T02:40:46;13.70;70.70
38325;DHT22;24126;52.672;13.622;2022-10-14T02:43:13;13.70;70.90
38325;DHT22;24126;52.672;13.622;2022-10-14T02:45:41;13.70;70.90
38325;DHT22;24126;52.672;13.622;2022-10-14T02:48:08;13.60;71.00
38325;DHT22;24126;52.672;13.622;2022-10-14T02:50:36;13.60;70.80
38325;DHT22;24126;52.672;13.622;2022-10-14T02:53:03;13.60;70.60
38325;DHT22;24126;52.672;13.622;2022-10-14T02:55:30;13.60;70.30
38325;DHT22;24126;52.672;13.622;2022-10-14T02:57:58;13.60;70.10
38325;DHT22;24126;52.672;13.622;2022-10-14T03:00:25;13.60;69.90
38325;DHT22;24126;52.672;13.622;2022-10-14T03:02:54;13.50;69.70
38325;DHT22;24126;52.672;13.622;2022-10-14T03:05:21;13.40;69.40
38325;DHT22;24126;52.672;13.622;2022-10-14T03:07:48;13.40;70.00
38325;DHT22;24126;52.672;13.622;2022-10-14T03:10:18;13.30;70.20
38325;DHT22;24126;52.672;13.622;2022-10-14T03:12:46;13.30;70.10
38325;DHT22;24126;52.672;13.622;2022-10-14T03:15:22;13.30;69.90
38325;DHT22;24126;52.672;13.622;2022-10-14T03:17:49;13.20;70.30
38325;DHT22;24126;52.672;13.622;2022-10-14T03:20:21;13.20;69.50
38325;DHT22;24126;52.672;13.622;2022-10-14T03:22:51;13.20;69.80
38325;DHT22;24126;52.672;13.622;2022-10-14T03:25:19;13.20;70.10
38325;DHT22;24126;52.672;13.622;2022-10-14T03:27:55;13.10;70.30
38325;DHT22;24126;52.672;13.622;2022-10-14T03:30:33;13.10;70.30
38325;DHT22;24126;52.672;13.622;2022-10-14T03:33:06;13.10;70.00
38325;DHT22;24126;52.672;13.622;2022-10-14T03:35:47;13.10;69.90
38325;DHT22;24126;52.672;13.622;2022-10-14T03:38:17;13.00;69.70
38325;DHT22;24126;52.672;13.622;2022-10-14T03:40:46;13.00;69.70
38325;DHT22;24126;52.672;13.622;2022-10-14T03:43:13;13.00;69.80
38325;DHT22;24126;52.672;13.622;2022-10-14T03:45:48;13.00;69.80
38325;DHT22;24126;52.672;13.622;2022-10-14T03:48:18;12.90;69.90
38325;DHT22;24126;52.672;13.622;2022-10-14T03:50:48;12.90;70.00
38325;DHT22;24126;52.672;13.622;2022-10-14T03:53:18;12.90;70.30
38325;DHT22;24126;52.672;13.622;2022-10-14T03:55:45;12.80;70.50
38325;DHT22;24126;52.672;13.622;2022-10-14T03:58:13;12.80;70.80
38325;DHT22;24126;52.672;13.622;2022-10-14T04:00:46;12.70;70.90
38325;DHT22;24126;52.672;13.622;2022-10-14T04:03:27;12.80;71.00
38325;DHT22;24126;52.672;13.622;2022-10-14T04:05:55;12.70;70.90
38325;DHT22;24126;52.672;13.622;2022-10-14T04:08:24;12.70;71.00
38325;DHT22;24126;52.672;13.622;2022-10-14T04:10:56;12.70;71.20
38325;DHT22;24126;52.672;13.622;2022-10-14T04:13:27;12.70;71.20
38325;DHT22;24126;52.672;13.622;2022-10-14T04:15:54;12.70;71.10
38325;DHT22;24126;52.672;13.622;2022-10-14T04:18:25;12.60;71.00
38325;DHT22;24126;52.672;13.622;2022-10-14T04:20:58;12.60;71.10
38325;DHT22;24126;52.672;13.622;2022-10-14T04:23:25;12.60;71.20
38325;DHT22;24126;52.672;13.622;2022-10-14T04:25:57;12.60;71.10
38325;DHT22;24126;52.672;13.622;2022-10-14T04:28:24;12.60;71.00
38325;DHT22;24126;52.672;13.622;2022-10-14T04:30:58;12.60;70.90
38325;DHT22;24126;52.672;13.622;2022-10-14T04:33:32;12.50;70.80
38325;DHT22;24126;52.672;13.622;2022-10-14T04:36:08;12.50;70.70
38325;DHT22;24126;52.672;13.622;2022-10-14T04:38:38;12.50;70.60
38325;DHT22;24126;52.672;13.622;2022-10-14T04:41:08;12.40;70.70
38325;DHT22;24126;52.672;13.622;2022-10-14T04:43:36;12.40;70.70
38325;DHT22;24126;52.672;13.622;2022-10-14T04:46:20;12.40;70.80
38325;DHT22;24126;52.672;13.622;2022-10-14T04:48:48;12.40;71.10
38325;DHT22;24126;52.672;13.622;2022-10-14T04:51:16;12.40;71.00
38325;DHT22;24126;52.672;13.622;2022-10-14T04:53:54;12.40;70.90
38325;DHT22;24126;52.672;13.622;2022-10-14T04:56:35;12.40;70.90
38325;DHT22;24126;52.672;13.622;2022-10-14T04:59:04;12.30;70.80
38325;DHT22;24126;52.672;13.622;2022-10-14T05:01:50;12.30;70.80
38325;DHT22;24126;52.672;13.622;2022-10-14T05:04:17;12.20;70.90
38325;DHT22;24126;52.672;13.622;2022-10-14T05:06:46;12.20;70.90
38325;DHT22;24126;52.672;13.622;2022-10-14T05:09:16;12.20;70.60
38325;DHT22;24126;52.672;13.622;2022-10-14T05:11:44;12.20;70.30
38325;DHT22;24126;52.672;13.622;2022-10-14T05:14:14;12.20;70.20
38325;DHT22;24126;52.672;13.622;2022-10-14T05:16:44;12.10;70.40
38325;DHT22;24126;52.672;13.622;2022-10-14T05:19:11;12.10;70.40
38325;DHT22;24126;52.672;13.622;2022-10-14T05:21:46;12.10;70.30
38325;DHT22;24126;52.672;13.622;2022-10-14T05:24:19;12.10;70.10
38325;DHT22;24126;52.672;13.622;2022-10-14T05:26:46;12.20;70.30
38325;DHT22;24126;52.672;13.622;2022-10-14T05:29:14;12.10;70.20
38325;DHT22;24126;52.672;13.622;2022-10-14T05:31:41;12.20;70.20
38325;DHT22;24126;52.672;13.622;2022-10-14T05:34:22;12.20;70.20
38325;DHT22;24126;52.672;13.622;2022-10-14T05:36:50;12.10;70.20
38325;DHT22;24126;52.672;13.622;2022-10-14T05:39:18;12.20;70.20
38325;DHT22;24126;52.672;13.622;2022-10-14T05:41:45;12.20;70.00
38325;DHT22;24126;52.672;13.622;2022-10-14T05:44:15;12.20;70.30
38325;DHT22;24126;52.672;13.622;2022-10-14T05:46:42;12.30;70.70
38325;DHT22;24126;52.672;13.622;2022-10-14T05:49:12;12.30;70.70
38325;DHT22;24126;52.672;13.622;2022-10-14T05:51:40;12.30;70.90
38325;DHT22;24126;52.672;13.622;2022-10-14T05:54:14;12.30;70.90
38325;DHT22;24126;52.672;13.622;2022-10-14T05:56:42;12.30;70.90
38325;DHT22;24126;52.672;13.622;2022-10-14T05:59:10;12.40;71.10
38325;DHT22;24126;52.672;13.622;2022-10-14T06:01:38;12.40;71.50
38325;DHT22;24126;52.672;13.622;2022-10-14T06:04:05;12.50;71.70
38325;DHT22;24126;52.672;13.622;2022-10-14T06:06:32;12.50;72.40
38325;DHT22;24126;52.672;13.622;2022-10-14T06:08:59;12.60;72.00
38325;DHT22;24126;52.672;13.622;2022-10-14T06:11:26;12.70;72.10
38325;DHT22;24126;52.672;13.622;2022-10-14T06:13:54;12.70;72.00
38325;DHT22;24126;52.672;13.622;2022-10-14T06:16:22;12.80;72.20
38325;DHT22;24126;52.672;13.622;2022-10-14T06:18:49;12.90;72.30
38325;DHT22;24126;52.672;13.622;2022-10-14T06:21:16;12.90;72.50
38325;DHT22;24126;52.672;13.622;2022-10-14T06:23:43;13.00;72.50
38325;DHT22;24126;52.672;13.622;2022-10-14T06:26:10;13.00;72.60
38325;DHT22;24126;52.672;13.622;2022-10-14T06:28:37;13.10;72.80
38325;DHT22;24126;52.672;13.622;2022-10-14T06:31:04;13.10;72.90
38325;DHT22;24126;52.672;13.622;2022-10-14T06:33:31;13.10;72.90
38325;DHT22;24126;52.672;13.622;2022-10-14T06:36:00;13.20;73.00
38325;DHT22;24126;52.672;13.622;2022-10-14T06:38:27;13.20;72.90
38325;DHT22;24126;52.672;13.622;2022-10-14T06:40:54;13.30;73.10
38325;DHT22;24126;52.672;13.622;2022-10-14T06:43:21;13.30;73.10
38325;DHT22;24126;52.672;13.622;2022-10-14T06:45:48;13.30;73.10
38325;DHT22;24126;52.672;13.622;2022-10-14T06:48:15;13.40;73.10
38325;DHT22;24126;52.672;13.622;2022-10-14T06:50:42;13.50;73.30
38325;DHT22;24126;52.672;13.622;2022-10-14T06:53:09;13.50;73.30
38325;DHT22;24126;52.672;13.622;2022-10-14T06:55:36;13.60;73.20
38325;DHT22;24126;52.672;13.622;2022-10-14T06:58:03;13.60;73.40
38325;DHT22;24126;52.672;13.622;2022-10-14T07:00:30;13.70;73.40
38325;DHT22;24126;52.672;13.622;2022-10-14T07:02:57;13.70;73.30
38325;DHT22;24126;52.672;13.622;2022-10-14T07:05:25;13.80;73.40
38325;DHT22;24126;52.672;13.622;2022-10-14T07:07:52;13.80;73.50
38325;DHT22;24126;52.672;13.622;2022-10-14T07:10:19;13.90;73.50
38325;DHT22;24126;52.672;13.622;2022-10-14T07:12:46;14.00;73.60
38325;DHT22;24126;52.672;13.622;2022-10-14T07:15:13;14.00;73.50
38325;DHT22;24126;52.672;13.622;2022-10-14T07:17:40;14.10;73.60
38325;DHT22;24126;52.672;13.622;2022-10-14T07:20:07;14.20;73.50
38325;DHT22;24126;52.672;13.622;2022-10-14T07:22:34;14.20;73.40
38325;DHT22;24126;52.672;13.622;2022-10-14T07:25:02;14.30;73.40
38325;DHT22;24126;52.672;13.622;2022-10-14T07:27:30;14.40;73.50
38325;DHT22;24126;52.672;13.622;2022-10-14T07:29:57;14.50;73.50
38325;DHT22;24126;52.672;13.622;2022-10-14T07:32:23;14.50;73.40
38325;DHT22;24126;52.672;13.622;2022-10-14T07:34:50;14.60;73.40
38325;DHT22;24126;52.672;13.622;2022-10-14T07:37:17;14.60;73.40
38325;DHT22;24126;52.672;13.622;2022-10-14T07:39:44;14.60;73.70
38325;DHT22;24126;52.672;13.622;2022-10-14T07:42:11;14.60;73.70
38325;DHT22;24126;52.672;13.622;2022-10-14T07:44:38;14.60;73.90
38325;DHT22;24126;52.672;13.622;2022-10-14T07:47:05;14.70;74.20
38325;DHT22;24126;52.672;13.622;2022-10-14T07:49:33;14.70;74.10
38325;DHT22;24126;52.672;13.622;2022-10-14T07:52:00;14.80;74.00
38325;DHT22;24126;52.672;13.622;2022-10-14T07:54:27;14.90;74.00
38325;DHT22;24126;52.672;13.622;2022-10-14T07:56:57;14.90;73.90
38325;DHT22;24126;52.672;13.622;2022-10-14T07:59:24;14.90;74.10
38325;DHT22;24126;52.672;13.622;2022-10-14T08:01:51;15.00;74.10
38325;DHT22;24126;52.672;13.622;2022-10-14T08:04:18;15.00;74.40
38325;DHT22;24126;52.672;13.622;2022-10-14T08:06:46;15.10;74.60
38325;DHT22;24126;52.672;13.622;2022-10-14T08:09:13;15.10;74.30
38325;DHT22;24126;52.672;13.622;2022-10-14T08:11:41;15.30;74.40
38325;DHT22;24126;52.672;13.622;2022-10-14T08:14:08;15.30;74.20
38325;DHT22;24126;52.672;13.622;2022-10-14T08:16:36;15.30;74.50
38325;DHT22;24126;52.672;13.622;2022-10-14T08:19:05;15.40;74.40
38325;DHT22;24126;52.672;13.622;2022-10-14T08:21:32;15.50;74.60
38325;DHT22;24126;52.672;13.622;2022-10-14T08:23:59;15.60;74.10
38325;DHT22;24126;52.672;13.622;2022-10-14T08:26:34;15.70;74.30
38325;DHT22;24126;52.672;13.622;2022-10-14T08:29:03;15.70;74.20
38325;DHT22;24126;52.672;13.622;2022-10-14T08:31:30;15.80;74.10
38325;DHT22;24126;52.672;13.622;2022-10-14T08:33:57;15.90;73.90
38325;DHT22;24126;52.672;13.622;2022-10-14T08:36:25;16.00;73.80
38325;DHT22;24126;52.672;13.622;2022-10-14T08:38:52;16.10;73.80
38325;DHT22;24126;52.672;13.622;2022-10-14T08:44:19;16.50;73.20
38325;DHT22;24126;52.672;13.622;2022-10-14T08:46:51;16.50;73.20
38325;DHT22;24126;52.672;13.622;2022-10-14T08:49:21;16.60;73.10
38325;DHT22;24126;52.672;13.622;2022-10-14T08:51:52;16.70;73.30
38325;DHT22;24126;52.672;13.622;2022-10-14T08:54:33;16.90;73.20
38325;DHT22;24126;52.672;13.622;2022-10-14T08:57:01;17.10;73.00
38325;DHT22;24126;52.672;13.622;2022-10-14T08:59:28;17.30;72.10
38325;DHT22;24126;52.672;13.622;2022-10-14T09:01:57;17.60;72.10
38325;DHT22;24126;52.672;13.622;2022-10-14T09:04:25;17.90;71.90
38325;DHT22;24126;52.672;13.622;2022-10-14T09:06:52;18.20;71.40
38325;DHT22;24126;52.672;13.622;2022-10-14T09:09:22;18.60;71.80
38325;DHT22;24126;52.672;13.622;2022-10-14T09:11:52;18.90;69.80
38325;DHT22;24126;52.672;13.622;2022-10-14T09:14:22;19.20;69.10
38325;DHT22;24126;52.672;13.622;2022-10-14T09:16:51;19.50;68.90
38325;DHT22;24126;52.672;13.622;2022-10-14T09:22:19;20.10;67.00
38325;DHT22;24126;52.672;13.622;2022-10-14T09:24:46;20.20;66.10
38325;DHT22;24126;52.672;13.622;2022-10-14T09:27:17;20.40;66.30
38325;DHT22;24126;52.672;13.622;2022-10-14T09:29:59;20.60;66.00
38325;DHT22;24126;52.672;13.622;2022-10-14T09:32:28;20.80;65.50
38325;DHT22;24126;52.672;13.622;2022-10-14T09:34:56;21.10;64.10
38325;DHT22;24126;52.672;13.622;2022-10-14T09:37:33;21.20;63.70
38325;DHT22;24126;52.672;13.622;2022-10-14T09:40:01;21.20;63.80
38325;DHT22;24126;52.672;13.622;2022-10-14T09:42:48;21.20;64.30
38325;DHT22;24126;52.672;13.622;2022-10-14T09:45:17;21.30;64.00
38325;DHT22;24126;52.672;13.622;2022-10-14T09:47:48;21.60;63.50
38325;DHT22;24126;52.672;13.622;2022-10-14T09:50:23;21.80;62.80
38325;DHT22;24126;52.672;13.622;2022-10-14T09:52:51;22.00;61.40
38325;DHT22;24126;52.672;13.622;2022-10-14T09:55:18;22.20;60.40
38325;DHT22;24126;52.672;13.622;2022-10-14T09:58:05;22.20;60.70
38325;DHT22;24126;52.672;13.622;2022-10-14T10:00:33;22.20;60.90
38325;DHT22;24126;52.672;13.622;2022-10-14T10:03:03;22.30;60.30
38325;DHT22;24126;52.672;13.622;2022-10-14T10:05:31;22.40;60.10
38325;DHT22;24126;52.672;13.622;2022-10-14T10:10:40;22.60;59.80
38325;DHT22;24126;52.672;13.622;2022-10-14T10:15:55;22.80;58.70
38325;DHT22;24126;52.672;13.622;2022-10-14T10:18:22;22.90;58.90
38325;DHT22;24126;52.672;13.622;2022-10-14T10:21:32;23.10;58.00
38325;DHT22;24126;52.672;13.622;2022-10-14T10:23:49;23.20;58.00
38325;DHT22;24126;52.672;13.622;2022-10-14T10:26:38;23.10;57.80
38325;DHT22;24126;52.672;13.622;2022-10-14T10:29:04;23.10;58.30
38325;DHT22;24126;52.672;13.622;2022-10-14T10:31:34;23.00;57.30
38325;DHT22;24126;52.672;13.622;2022-10-14T10:36:52;22.80;57.70
38325;DHT22;24126;52.672;13.622;2022-10-14T10:39:33;22.70;58.00
38325;DHT22;24126;52.672;13.622;2022-10-14T10:42:46;22.60;58.20
38325;DHT22;24126;52.672;13.622;2022-10-14T10:44:58;22.60;58.00
38325;DHT22;24126;52.672;13.622;2022-10-14T10:47:30;22.70;58.10
38325;DHT22;24126;52.672;13.622;2022-10-14T10:50:00;22.70;57.50
38325;DHT22;24126;52.672;13.622;2022-10-14T10:52:44;22.90;57.50
38325;DHT22;24126;52.672;13.622;2022-10-14T10:55:21;23.00;57.50
38325;DHT22;24126;52.672;13.622;2022-10-14T11:00:19;23.20;55.90
38325;DHT22;24126;52.672;13.622;2022-10-14T11:02:52;23.10;56.10
38325;DHT22;24126;52.672;13.622;2022-10-14T11:11:24;22.90;55.80
38325;DHT22;24126;52.672;13.622;2022-10-14T11:19:32;22.70;57.50
38325;DHT22;24126;52.672;13.622;2022-10-14T11:24:53;22.70;56.70
38325;DHT22;24126;52.672;13.622;2022-10-14T11:27:29;22.50;56.90
38325;DHT22;24126;52.672;13.622;2022-10-14T11:30:18;22.40;57.20
38325;DHT22;24126;52.672;13.622;2022-10-14T11:33:02;22.40;57.80
38325;DHT22;24126;52.672;13.622;2022-10-14T11:38:28;22.30;58.10
38325;DHT22;24126;52.672;13.622;2022-10-14T11:41:07;22.20;58.20
38325;DHT22;24126;52.672;13.622;2022-10-14T11:43:45;22.30;58.50
38325;DHT22;24126;52.672;13.622;2022-10-14T11:46:15;22.30;58.60
38325;DHT22;24126;52.672;13.622;2022-10-14T11:51:31;22.40;58.80
38325;DHT22;24126;52.672;13.622;2022-10-14T11:56:34;22.60;58.30
38325;DHT22;24126;52.672;13.622;2022-10-14T11:59:07;22.60;58.40
38325;DHT22;24126;52.672;13.622;2022-10-14T12:01:50;22.50;58.10
38325;DHT22;24126;52.672;13.622;2022-10-14T12:04:22;22.40;58.20
38325;DHT22;24126;52.672;13.622;2022-10-14T12:06:52;22.40;58.60
38325;DHT22;24126;52.672;13.622;2022-10-14T12:09:25;22.40;59.20
38325;DHT22;24126;52.672;13.622;2022-10-14T12:11:55;22.40;59.40
38325;DHT22;24126;52.672;13.622;2022-10-14T12:14:28;22.50;59.30
38325;DHT22;24126;52.672;13.622;2022-10-14T12:16:55;22.40;59.20
38325;DHT22;24126;52.672;13.622;2022-10-14T12:19:25;22.40;58.90
38325;DHT22;24126;52.672;13.622;2022-10-14T12:21:56;22.40;59.20
38325;DHT22;24126;52.672;13.622;2022-10-14T12:24:29;22.40;59.20
38325;DHT22;24126;52.672;13.622;2022-10-14T12:26:57;22.40;59.10
38325;DHT22;24126;52.672;13.622;2022-10-14T12:29:27;22.40;59.00
38325;DHT22;24126;52.672;13.622;2022-10-14T12:34:36;22.40;59.40
38325;DHT22;24126;52.672;13.622;2022-10-14T12:39:50;22.40;59.50
38325;DHT22;24126;52.672;13.622;2022-10-14T12:42:17;22.40;59.50
38325;DHT22;24126;52.672;13.622;2022-10-14T12:44:46;22.40;59.40
38325;DHT22;24126;52.672;13.622;2022-10-14T12:47:21;22.40;59.20
38325;DHT22;24126;52.672;13.622;2022-10-14T12:49:52;22.40;59.30
38325;DHT22;24126;52.672;13.622;2022-10-14T12:52:22;22.30;59.50
38325;DHT22;24126;52.672;13.622;2022-10-14T12:54:50;22.30;59.60
38325;DHT22;24126;52.672;13.622;2022-10-14T12:59:47;22.20;59.80
38325;DHT22;24126;52.672;13.622;2022-10-14T13:02:25;22.20;59.90
38325;DHT22;24126;52.672;13.622;2022-10-14T13:04:59;22.10;60.00
38325;DHT22;24126;52.672;13.622;2022-10-14T13:07:29;22.10;60.00
38325;DHT22;24126;52.672;13.622;2022-10-14T13:09:57;22.10;60.20
38325;DHT22;24126;52.672;13.622;2022-10-14T13:14:57;22.00;60.50
38325;DHT22;24126;52.672;13.622;2022-10-14T13:17:43;22.00;60.50
38325;DHT22;24126;52.672;13.622;2022-10-14T13:20:47;22.00;60.60
38325;DHT22;24126;52.672;13.622;2022-10-14T13:25:47;22.00;60.60
38325;DHT22;24126;52.672;13.622;2022-10-14T13:28:22;22.00;60.60
38325;DHT22;24126;52.672;13.622;2022-10-14T13:30:54;22.10;60.60
38325;DHT22;24126;52.672;13.622;2022-10-14T13:33:25;22.10;60.30
38325;DHT22;24126;52.672;13.622;2022-10-14T13:36:17;22.20;59.60
38325;DHT22;24126;52.672;13.622;2022-10-14T13:38:50;22.20;58.80
38325;DHT22;24126;52.672;13.622;2022-10-14T13:41:19;22.20;59.10
38325;DHT22;24126;52.672;13.622;2022-10-14T13:43:55;22.10;59.30
38325;DHT22;24126;52.672;13.622;2022-10-14T13:46:41;22.10;59.70
38325;DHT22;24126;52.672;13.622;2022-10-14T13:49:19;22.10;59.30
38325;DHT22;24126;52.672;13.622;2022-10-14T13:51:49;22.00;59.80
38325;DHT22;24126;52.672;13.622;2022-10-14T13:54:18;22.00;60.00
38325;DHT22;24126;52.672;13.622;2022-10-14T13:59:37;21.90;59.60
38325;DHT22;24126;52.672;13.622;2022-10-14T14:02:08;21.90;59.10
38325;DHT22;24126;52.672;13.622;2022-10-14T14:04:37;21.90;59.50
38325;DHT22;24126;52.672;13.622;2022-10-14T14:07:04;21.90;59.50
38325;DHT22;24126;52.672;13.622;2022-10-14T14:09:32;21.80;59.20
38325;DHT22;24126;52.672;13.622;2022-10-14T14:12:00;21.80;59.60
38325;DHT22;24126;52.672;13.622;2022-10-14T14:14:35;21.80;59.70
38325;DHT22;24126;52.672;13.622;2022-10-14T14:17:04;21.80;59.90
38325;DHT22;24126;52.672;13.622;2022-10-14T14:24:46;21.80;59.70
38325;DHT22;24126;52.672;13.622;2022-10-14T14:27:14;21.80;59.80
38325;DHT22;24126;52.672;13.622;2022-10-14T14:29:43;21.70;59.40
38325;DHT22;24126;52.672;13.622;2022-10-14T14:32:12;21.70;59.30
38325;DHT22;24126;52.672;13.622;2022-10-14T14:34:41;21.70;59.70
38325;DHT22;24126;52.672;13.622;2022-10-14T14:39:41;21.60;60.00
38325;DHT22;24126;52.672;13.622;2022-10-14T14:42:08;21.70;59.90
38325;DHT22;24126;52.672;13.622;2022-10-14T14:44:36;21.70;60.00
38325;DHT22;24126;52.672;13.622;2022-10-14T14:47:04;21.70;59.90
38325;DHT22;24126;52.672;13.622;2022-10-14T14:49:34;21.60;59.90
38325;DHT22;24126;52.672;13.622;2022-10-14T14:52:03;21.60;59.90
38325;DHT22;24126;52.672;13.622;2022-10-14T14:54:30;21.60;59.90
38325;DHT22;24126;52.672;13.622;2022-10-14T14:57:04;21.60;60.00
38325;DHT22;24126;52.672;13.622;2022-10-14T14:59:34;21.50;59.90
38325;DHT22;24126;52.672;13.622;2022-10-14T15:02:03;21.50;60.00
38325;DHT22;24126;52.672;13.622;2022-10-14T15:04:31;21.40;60.10
38325;DHT22;24126;52.672;13.622;2022-10-14T15:07:00;21.40;60.30
38325;DHT22;24126;52.672;13.622;2022-10-14T15:09:41;21.30;60.10
38325;DHT22;24126;52.672;13.622;2022-10-14T15:12:14;21.30;60.10
38325;DHT22;24126;52.672;13.622;2022-10-14T15:14:55;21.20;60.10
38325;DHT22;24126;52.672;13.622;2022-10-14T15:17:31;21.20;60.00
38325;DHT22;24126;52.672;13.622;2022-10-14T15:20:19;21.20;60.20
38325;DHT22;24126;52.672;13.622;2022-10-14T15:22:46;21.20;60.30
38325;DHT22;24126;52.672;13.622;2022-10-14T15:27:51;21.10;60.50
38325;DHT22;24126;52.672;13.622;2022-10-14T15:32:45;21.00;60.60
38325;DHT22;24126;52.672;13.622;2022-10-14T15:35:16;21.00;60.60
38325;DHT22;24126;52.672;13.622;2022-10-14T15:37:44;21.00;60.50
38325;DHT22;24126;52.672;13.622;2022-10-14T15:40:12;21.00;60.90
38325;DHT22;24126;52.672;13.622;2022-10-14T15:42:40;20.90;60.90
38325;DHT22;24126;52.672;13.622;2022-10-14T15:45:08;20.90;61.00
38325;DHT22;24126;52.672;13.622;2022-10-14T15:47:35;20.90;61.10
38325;DHT22;24126;52.672;13.622;2022-10-14T15:50:05;20.80;61.00
38325;DHT22;24126;52.672;13.622;2022-10-14T15:52:32;20.70;60.90
38325;DHT22;24126;52.672;13.622;2022-10-14T15:54:59;20.70;61.10
38325;DHT22;24126;52.672;13.622;2022-10-14T15:57:26;20.60;61.20
38325;DHT22;24126;52.672;13.622;2022-10-14T15:59:53;20.50;61.20
38325;DHT22;24126;52.672;13.622;2022-10-14T16:02:26;20.50;61.30
38325;DHT22;24126;52.672;13.622;2022-10-14T16:04:56;20.40;61.30
38325;DHT22;24126;52.672;13.622;2022-10-14T16:07:23;20.40;61.50
38325;DHT22;24126;52.672;13.622;2022-10-14T16:09:50;20.30;61.50
38325;DHT22;24126;52.672;13.622;2022-10-14T16:12:17;20.20;61.60
38325;DHT22;24126;52.672;13.622;2022-10-14T16:14:44;20.20;61.80
38325;DHT22;24126;52.672;13.622;2022-10-14T16:17:11;20.10;61.90
38325;DHT22;24126;52.672;13.622;2022-10-14T16:19:38;20.00;61.90
38325;DHT22;24126;52.672;13.622;2022-10-14T16:22:06;19.90;61.90
38325;DHT22;24126;52.672;13.622;2022-10-14T16:24:37;19.80;62.00
38325;DHT22;24126;52.672;13.622;2022-10-14T16:27:04;19.80;62.90
38325;DHT22;24126;52.672;13.622;2022-10-14T16:29:31;19.70;62.40
38325;DHT22;24126;52.672;13.622;2022-10-14T16:32:00;19.60;62.40
38325;DHT22;24126;52.672;13.622;2022-10-14T16:34:27;19.60;62.50
38325;DHT22;24126;52.672;13.622;2022-10-14T16:36:54;19.50;62.50
38325;DHT22;24126;52.672;13.622;2022-10-14T16:39:21;19.50;62.60
38325;DHT22;24126;52.672;13.622;2022-10-14T16:41:48;19.40;62.70
38325;DHT22;24126;52.672;13.622;2022-10-14T16:44:15;19.30;62.80
38325;DHT22;24126;52.672;13.622;2022-10-14T16:46:52;19.20;62.80
38325;DHT22;24126;52.672;13.622;2022-10-14T16:49:37;19.20;63.20
38325;DHT22;24126;52.672;13.622;2022-10-14T16:52:05;19.10;63.40
38325;DHT22;24126;52.672;13.622;2022-10-14T16:54:32;19.20;63.60
38325;DHT22;24126;52.672;13.622;2022-10-14T16:56:59;19.10;63.90
38325;DHT22;24126;52.672;13.622;2022-10-14T16:59:28;19.10;63.80
38325;DHT22;24126;52.672;13.622;2022-10-14T17:01:55;19.10;63.90